Time;durP1;ratioP1;P1;durP2;ratioP2;P2;SDS_P1;SDS_P2;PMS_P1;PMS_P2;Temp;Humidity;BMP_temperature;BMP_pressure;BME280_temperature;BME280_humidity;BME280_pressure;Samples;Min_cycle;Max_cycle;Signal;HPM_P1;HPM_P2
2023/01/31 00:01:30;;;;;;;119.82;9.50;;;;;;;8.85;100.00;98488.50;5033634;28;20118;-56
2023/01/31 00:03:58;;;;;;;156.75;11.55;;;;;;;8.28;100.00;98489.47;5035580;28;20021;-54
2023/01/31 00:06:32;;;;;;;137.73;10.75;;;;;;;9.55;100.00;98485.75;5017641;28;20125;-58
2023/01/31 00:08:59;;;;;;;152.38;11.10;;;;;;;10.29;100.00;98491.47;5036047;28;20059;-54
2023/01/31 00:11:27;;;;;;;132.75;8.93;;;;;;;9.93;100.00;98486.91;5034434;28;20065;-54
2023/01/31 00:13:53;;;;;;;146.32;8.45;;;;;;;8.97;100.00;98487.75;5035786;28;20057;-54
2023/01/31 00:16:20;;;;;;;145.25;12.60;;;;;;;10.17;100.00;98491.38;5035511;28;20044;-54
2023/01/31 00:18:46;;;;;;;112.13;7.63;;;;;;;9.56;100.00;98483.16;5034295;28;20095;-56
2023/01/31 00:21:24;;;;;;;156.98;11.52;;;;;;;10.88;100.00;98495.25;5034176;28;20060;-55
2023/01/31 00:23:51;;;;;;;125.00;12.55;;;;;;;11.58;100.00;98492.81;5035819;28;20750;-55
2023/01/31 00:26:20;;;;;;;165.18;12.75;;;;;;;11.90;100.00;98491.03;5034336;28;20098;-54
2023/01/31 00:28:47;;;;;;;130.95;9.52;;;;;;;8.73;100.00;98503.06;5033996;28;20031;-54
2023/01/31 00:31:14;;;;;;;158.65;8.68;;;;;;;9.42;100.00;98503.81;5034872;28;20091;-56
2023/01/31 00:33:41;;;;;;;143.77;8.02;;;;;;;8.56;100.00;98491.59;5032889;28;20032;-54
2023/01/31 00:36:10;;;;;;;140.70;12.18;;;;;;;10.03;100.00;98494.78;5034118;28;20037;-56
2023/01/31 00:38:36;;;;;;;145.27;10.10;;;;;;;10.60;100.00;98490.81;5033998;28;20218;-54
2023/01/31 00:41:03;;;;;;;123.15;9.80;;;;;;;10.38;100.00;98501.06;5033776;28;20530;-55
2023/01/31 00:43:29;;;;;;;155.73;11.07;;;;;;;8.92;100.00;98498.09;5034344;28;20179;-55
2023/01/31 00:45:54;;;;;;;138.82;9.30;;;;;;;8.95;100.00;98494.69;5016615;28;20119;-54
2023/01/31 00:48:20;;;;;;;150.75;10.27;;;;;;;9.99;100.00;98494.75;5035043;28;20037;-53
2023/01/31 00:50:45;;;;;;;155.60;10.82;;;;;;;9.96;100.00;98498.22;5032555;28;20734;-54
2023/01/31 00:53:11;;;;;;;131.30;11.02;;;;;;;10.12;100.00;98499.19;5036076;28;20024;-57
2023/01/31 00:55:36;;;;;;;140.85;9.45;;;;;;;10.05;100.00;98496.53;5034571;28;20037;-55
2023/01/31 00:58:02;;;;;;;116.40;9.20;;;;;;;9.90;100.00;98488.63;5034007;28;20044;-56
2023/01/31 01:00:27;;;;;;;111.18;6.65;;;;;;;9.10;100.00;98494.81;5035030;28;20057;-57
2023/01/31 01:02:52;;;;;;;155.90;9.77;;;;;;;9.63;100.00;98492.75;5035397;28;20490;-56
2023/01/31 01:05:18;;;;;;;158.05;11.57;;;;;;;9.53;100.00;98501.31;5037488;28;20063;-56
2023/01/31 01:07:43;;;;;;;124.43;7.80;;;;;;;9.71;100.00;98508.41;5040548;28;20056;-56
2023/01/31 01:10:09;;;;;;;169.75;9.23;;;;;;;8.88;100.00;98509.31;5038466;28;20059;-58
2023/01/31 01:12:35;;;;;;;122.43;10.38;;;;;;;10.22;100.00;98500.13;5040650;28;20025;-55
2023/01/31 01:15:00;;;;;;;146.93;10.23;;;;;;;11.03;100.00;98505.69;5037685;28;20090;-54
2023/01/31 01:17:25;;;;;;;123.53;9.68;;;;;;;9.60;100.00;98492.72;5037476;28;20036;-55
2023/01/31 01:19:51;;;;;;;141.02;10.60;;;;;;;10.79;100.00;98499.56;5038552;28;20059;-55
2023/01/31 01:22:16;;;;;;;161.70;11.25;;;;;;;9.50;100.00;98493.47;5038569;28;20187;-55
2023/01/31 01:24:43;;;;;;;135.55;8.50;;;;;;;7.57;100.00;98502.22;5038442;28;20025;-55
2023/01/31 01:27:09;;;;;;;122.45;6.60;;;;;;;9.14;100.00;98500.06;5039308;28;20075;-55
2023/01/31 01:29:35;;;;;;;146.10;9.32;;;;;;;8.51;100.00;98498.44;5038468;28;20040;-53
2023/01/31 01:32:01;;;;;;;123.82;11.65;;;;;;;10.05;100.00;98504.34;5037245;28;20032;-53
2023/01/31 01:34:27;;;;;;;163.20;11.23;;;;;;;9.28;100.00;98510.59;5035158;28;20033;-55
2023/01/31 01:36:52;;;;;;;126.80;8.10;;;;;;;8.03;100.00;98519.34;5036510;28;20033;-55
2023/01/31 01:39:18;;;;;;;154.27;10.88;;;;;;;8.64;100.00;98504.69;5039340;28;20032;-56
2023/01/31 01:41:44;;;;;;;164.13;11.55;;;;;;;9.40;100.00;98505.53;5037228;28;20183;-53
2023/01/31 01:44:49;;;;;;;123.13;9.43;;;;;;;8.94;100.00;98509.38;5034490;28;20566;-53
2023/01/31 01:47:17;;;;;;;131.93;8.75;;;;;;;8.80;100.00;98505.75;5037157;28;20163;-54
2023/01/31 01:49:45;;;;;;;178.48;8.57;;;;;;;8.86;100.00;98495.44;5037664;28;20090;-54
2023/01/31 01:52:13;;;;;;;147.60;11.30;;;;;;;8.94;100.00;98495.50;5037519;28;20047;-53
2023/01/31 01:54:51;;;;;;;123.18;8.45;;;;;;;8.27;100.00;98503.28;5036595;28;20042;-55
2023/01/31 01:57:21;;;;;;;129.50;8.63;;;;;;;8.56;100.00;98513.22;5037959;28;20067;-53
2023/01/31 01:59:59;;;;;;;156.07;11.02;;;;;;;8.96;100.00;98520.66;5035859;28;20033;-54
2023/01/31 02:02:24;;;;;;;140.25;11.25;;;;;;;9.41;100.00;98507.25;5036858;28;20028;-54
2023/01/31 02:04:51;;;;;;;123.28;9.90;;;;;;;9.71;100.00;98515.31;5038438;28;20127;-53
2023/01/31 02:07:16;;;;;;;144.35;11.80;;;;;;;10.05;100.00;98512.97;5037125;28;20574;-57
2023/01/31 02:10:06;;;;;;;162.68;10.45;;;;;;;9.38;100.00;98509.81;5037645;28;20070;-54
2023/01/31 02:12:33;;;;;;;126.90;8.23;;;;;;;9.09;100.00;98519.03;5037927;28;20148;-56
2023/01/31 02:14:59;;;;;;;127.35;8.88;;;;;;;7.52;100.00;98528.03;5038659;28;20025;-55
2023/01/31 02:17:25;;;;;;;155.18;9.88;;;;;;;7.06;100.00;98540.09;5038085;28;20421;-54
2023/01/31 02:20:05;;;;;;;171.45;10.55;;;;;;;7.50;100.00;98547.81;5036732;28;20572;-53
2023/01/31 02:22:37;;;;;;;178.32;11.40;;;;;;;8.56;100.00;98544.34;5037221;28;20143;-56
2023/01/31 02:25:27;;;;;;;133.50;10.27;;;;;;;9.58;100.00;98541.16;5039094;28;20033;-54
2023/01/31 02:28:37;;;;;;;146.70;10.50;;;;;;;7.65;100.00;98559.31;5036248;28;20075;-54
2023/01/31 02:31:40;;;;;;;120.00;8.60;;;;;;;8.63;100.00;98542.69;5019106;28;20047;-54
2023/01/31 02:34:13;;;;;;;146.57;10.23;;;;;;;8.04;100.00;98537.50;5037650;28;20119;-54
2023/01/31 02:37:01;;;;;;;158.95;11.20;;;;;;;8.22;100.00;98554.19;5020164;28;20125;-53
2023/01/31 02:39:37;;;;;;;134.75;9.23;;;;;;;9.01;100.00;98540.59;5036272;28;20542;-53
2023/01/31 02:42:38;;;;;;;135.93;7.90;;;;;;;9.90;100.00;98534.53;5038168;28;20047;-53
2023/01/31 02:45:07;;;;;;;130.82;7.70;;;;;;;9.30;100.00;98529.63;5037443;28;20560;-55
2023/01/31 02:48:07;;;;;;;122.20;11.20;;;;;;;9.53;100.00;98532.47;5035958;28;20769;-54
2023/01/31 02:51:05;;;;;;;128.63;10.27;;;;;;;9.77;100.00;98542.22;5036133;28;20453;-54
2023/01/31 02:53:52;;;;;;;123.88;11.07;;;;;;;8.45;100.00;98544.16;5036920;28;20045;-53
2023/01/31 02:56:28;;;;;;;131.20;8.98;;;;;;;8.32;100.00;98545.69;5020096;28;20781;-54
2023/01/31 02:59:27;;;;;;;125.45;10.68;;;;;;;8.24;100.00;98551.63;5037548;28;20063;-53
2023/01/31 03:02:02;;;;;;;126.60;9.77;;;;;;;7.28;100.00;98546.56;5038211;28;20467;-53
2023/01/31 03:04:32;;;;;;;134.35;8.32;;;;;;;7.85;100.00;98551.00;5036725;28;20036;-54
2023/01/31 03:07:25;;;;;;;145.18;10.30;;;;;;;8.24;100.00;98546.44;5037785;28;20052;-53
2023/01/31 03:09:57;;;;;;;150.73;10.05;;;;;;;7.32;100.00;98563.91;5036810;28;20025;-54
2023/01/31 03:12:32;;;;;;;171.02;9.93;;;;;;;7.79;100.00;98554.34;5034882;28;20045;-53
2023/01/31 03:15:19;;;;;;;124.85;8.77;;;;;;;9.02;100.00;98550.09;5035292;28;20036;-53
2023/01/31 03:17:59;;;;;;;142.73;9.60;;;;;;;9.29;100.00;98554.75;5035416;28;20048;-54
2023/01/31 03:20:43;;;;;;;150.57;9.82;;;;;;;7.98;100.00;98565.03;5036225;28;20041;-55
2023/01/31 03:23:20;;;;;;;137.40;9.82;;;;;;;8.25;100.00;98569.78;5034935;28;20045;-52
2023/01/31 03:25:48;;;;;;;128.98;9.30;;;;;;;8.55;100.00;98568.53;5034110;28;20068;-54
2023/01/31 03:28:28;;;;;;;137.25;11.23;;;;;;;7.72;100.00;98581.84;5033582;28;20037;-52
2023/01/31 03:31:09;;;;;;;143.48;9.00;;;;;;;8.73;100.00;98577.41;5034791;28;20044;-53
2023/01/31 03:33:39;;;;;;;150.75;9.52;;;;;;;8.68;100.00;98574.75;5035218;28;20068;-52
2023/01/31 03:36:23;;;;;;;126.70;9.05;;;;;;;9.07;100.00;98582.16;5035590;28;20040;-53
2023/01/31 03:39:13;;;;;;;128.68;9.43;;;;;;;8.11;100.00;98592.00;5036754;28;20029;-53
2023/01/31 03:42:06;;;;;;;135.32;9.50;;;;;;;6.70;100.00;98593.66;5033892;28;20115;-55
2023/01/31 03:44:38;;;;;;;142.07;10.35;;;;;;;8.72;100.00;98596.41;5035725;28;20079;-55
2023/01/31 03:47:28;;;;;;;191.30;11.32;;;;;;;7.83;100.00;98597.59;5034213;28;20159;-53
2023/01/31 03:49:57;;;;;;;152.77;10.77;;;;;;;8.36;100.00;98608.84;5034912;28;20120;-53
2023/01/31 03:52:33;;;;;;;126.57;9.98;;;;;;;7.71;100.00;98608.59;5035849;28;20047;-55
2023/01/31 03:55:06;;;;;;;137.25;11.10;;;;;;;8.19;100.00;98616.31;5034511;28;20021;-53
2023/01/31 03:57:39;;;;;;;134.85;9.20;;;;;;;8.42;100.00;98616.69;5036695;28;20037;-53
2023/01/31 04:00:08;;;;;;;137.45;9.55;;;;;;;8.66;100.00;98620.56;5033484;28;20583;-54
2023/01/31 04:02:35;;;;;;;129.27;8.10;;;;;;;7.68;100.00;98619.78;5015455;28;20037;-53
2023/01/31 04:05:16;;;;;;;137.85;9.63;;;;;;;7.87;100.00;98630.47;5012276;28;20398;-53
2023/01/31 04:07:41;;;;;;;139.88;9.77;;;;;;;7.43;100.00;98619.31;5034198;28;20060;-54
2023/01/31 04:10:12;;;;;;;139.05;9.90;;;;;;;6.67;100.00;98637.53;5034431;28;20025;-53
2023/01/31 04:12:37;;;;;;;146.43;8.82;;;;;;;6.59;100.00;98638.25;5034744;28;20115;-54
2023/01/31 04:15:05;;;;;;;137.77;9.88;;;;;;;6.30;100.00;98634.97;5035514;28;20648;-55
2023/01/31 04:17:30;;;;;;;148.50;9.95;;;;;;;7.22;100.00;98645.66;5035227;28;20045;-54
2023/01/31 04:19:56;;;;;;;127.35;9.93;;;;;;;7.42;100.00;98656.41;5035852;28;20025;-55
2023/01/31 04:22:21;;;;;;;115.75;7.07;;;;;;;8.10;100.00;98657.63;5034520;28;20045;-54
2023/01/31 04:24:47;;;;;;;167.80;11.32;;;;;;;7.92;100.00;98657.34;5034860;28;20025;-55
2023/01/31 04:27:12;;;;;;;143.43;10.25;;;;;;;7.98;100.00;98659.16;5035228;28;20040;-56
2023/01/31 04:29:37;;;;;;;163.80;10.77;;;;;;;7.81;100.00;98659.75;5033508;28;20056;-56
2023/01/31 04:32:03;;;;;;;148.50;10.48;;;;;;;7.28;100.00;98658.69;5034352;28;20044;-54
2023/01/31 04:34:28;;;;;;;146.57;10.23;;;;;;;6.75;100.00;98656.69;5035641;28;20553;-54
2023/01/31 04:36:54;;;;;;;168.18;10.30;;;;;;;6.71;100.00;98660.03;5034707;28;20161;-53
2023/01/31 04:39:19;;;;;;;121.55;7.75;;;;;;;7.17;100.00;98662.78;5016692;28;20434;-54
2023/01/31 04:41:45;;;;;;;140.98;9.18;;;;;;;6.97;100.00;98662.34;5033897;28;20162;-56
2023/01/31 04:44:10;;;;;;;164.40;10.85;;;;;;;8.11;100.00;98657.66;5034522;28;20032;-57
2023/01/31 04:46:36;;;;;;;139.20;10.38;;;;;;;6.74;100.00;98660.13;5034611;28;20387;-55
2023/01/31 04:49:02;;;;;;;141.38;9.18;;;;;;;8.72;100.00;98656.94;5012546;28;20057;-54
2023/01/31 04:51:27;;;;;;;161.75;10.73;;;;;;;8.24;100.00;98644.91;5032817;28;20135;-56
2023/01/31 04:53:52;;;;;;;122.38;9.13;;;;;;;9.80;100.00;98636.63;5034960;28;20052;-54
2023/01/31 04:56:18;;;;;;;154.07;10.25;;;;;;;8.41;100.00;98648.66;5032326;28;20832;-55
2023/01/31 04:58:43;;;;;;;121.53;8.70;;;;;;;8.82;100.00;98638.91;5034062;28;20028;-54
2023/01/31 05:01:08;;;;;;;144.45;9.10;;;;;;;7.60;100.00;98643.78;5034337;28;20134;-54
2023/01/31 05:03:34;;;;;;;145.60;8.93;;;;;;;7.61;100.00;98640.38;5031935;28;20039;-56
2023/01/31 05:05:59;;;;;;;113.43;9.07;;;;;;;7.86;100.00;98640.78;5033190;28;20171;-56
2023/01/31 05:08:25;;;;;;;141.00;8.55;;;;;;;7.43;100.00;98636.59;5034969;28;20163;-56
2023/01/31 05:10:59;;;;;;;123.40;7.88;;;;;;;8.28;100.00;98631.16;5016525;28;20060;-56
2023/01/31 05:13:25;;;;;;;130.32;9.25;;;;;;;8.00;100.00;98635.88;5033355;28;20025;-56
2023/01/31 05:15:51;;;;;;;144.52;9.75;;;;;;;8.27;100.00;98643.25;5033328;28;20044;-55
2023/01/31 05:18:17;;;;;;;128.77;8.77;;;;;;;7.45;100.00;98631.44;5035650;28;20021;-55
2023/01/31 05:20:42;;;;;;;167.95;10.32;;;;;;;7.26;100.00;98638.81;5032640;28;20075;-55
2023/01/31 05:23:09;;;;;;;110.07;7.50;;;;;;;7.00;100.00;98636.56;5033926;28;20028;-55
2023/01/31 05:25:35;;;;;;;134.38;8.15;;;;;;;7.07;100.00;98638.44;5034177;28;20103;-54
2023/01/31 05:28:02;;;;;;;166.63;10.02;;;;;;;7.38;100.00;98636.47;5034936;28;20532;-56
2023/01/31 05:30:27;;;;;;;157.18;11.07;;;;;;;7.03;100.00;98634.03;5033680;28;20659;-53
2023/01/31 05:32:52;;;;;;;172.68;10.23;;;;;;;7.61;100.00;98633.44;5015454;28;20775;-53
2023/01/31 05:35:18;;;;;;;121.82;9.25;;;;;;;7.61;100.00;98643.81;5033764;28;20033;-54
2023/01/31 05:37:44;;;;;;;131.80;9.77;;;;;;;7.28;100.00;98644.91;5034688;28;20033;-55
2023/01/31 05:40:11;;;;;;;162.70;9.77;;;;;;;6.24;100.00;98633.97;5034018;28;20031;-55
2023/01/31 05:42:37;;;;;;;149.05;10.88;;;;;;;6.54;100.00;98633.81;5035031;28;20036;-56
2023/01/31 05:45:03;;;;;;;146.63;9.00;;;;;;;6.90;100.00;98638.06;5034201;28;20029;-56
2023/01/31 05:47:28;;;;;;;147.50;9.43;;;;;;;6.06;100.00;98644.75;5035393;28;20133;-56
2023/01/31 05:49:53;;;;;;;145.43;10.02;;;;;;;6.96;100.00;98648.56;5034400;28;20036;-53
2023/01/31 05:52:19;;;;;;;176.07;10.90;;;;;;;6.72;100.00;98648.88;5037313;28;20163;-55
2023/01/31 05:54:44;;;;;;;128.48;7.57;;;;;;;6.58;100.00;98656.31;5036180;28;20060;-54
2023/01/31 05:57:10;;;;;;;148.43;11.15;;;;;;;5.88;100.00;98667.47;5036488;28;20033;-53
2023/01/31 05:59:35;;;;;;;200.80;11.38;;;;;;;6.60;100.00;98667.53;5038411;28;20140;-54
2023/01/31 06:02:00;;;;;;;148.43;10.07;;;;;;;5.80;100.00;98673.31;5038437;28;20037;-54
2023/01/31 06:04:26;;;;;;;151.50;10.63;;;;;;;7.05;100.00;98673.72;5038813;28;20445;-53
2023/01/31 06:06:51;;;;;;;141.05;9.90;;;;;;;6.22;100.00;98678.69;5036079;28;20120;-55
2023/01/31 06:09:16;;;;;;;146.60;11.25;;;;;;;6.31;100.00;98673.75;5037864;28;20029;-53
2023/01/31 06:11:42;;;;;;;175.27;10.75;;;;;;;6.75;100.00;98661.84;5035964;28;20037;-56
2023/01/31 06:14:08;;;;;;;131.18;8.07;;;;;;;7.48;100.00;98659.94;5037782;28;20031;-54
2023/01/31 06:16:33;;;;;;;144.10;10.27;;;;;;;6.52;100.00;98664.78;5037817;28;20043;-56
2023/01/31 06:18:58;;;;;;;157.20;10.40;;;;;;;5.73;100.00;98669.66;5036621;28;20028;-53
2023/01/31 06:21:24;;;;;;;114.38;9.27;;;;;;;6.30;100.00;98677.19;5038242;28;20151;-55
2023/01/31 06:23:49;;;;;;;142.98;8.65;;;;;;;6.69;100.00;98666.91;5037153;28;20024;-54
2023/01/31 06:26:14;;;;;;;121.35;7.13;;;;;;;6.50;100.00;98663.91;5021826;28;20048;-55
2023/01/31 06:28:40;;;;;;;138.15;9.90;;;;;;;8.00;100.00;98672.13;5037319;28;20109;-54
2023/01/31 06:31:07;;;;;;;180.82;10.73;;;;;;;7.33;100.00;98669.16;5036354;28;20143;-56
2023/01/31 06:33:32;;;;;;;157.10;7.38;;;;;;;7.65;100.00;98671.50;5033022;28;20025;-55
2023/01/31 06:35:58;;;;;;;157.70;9.45;;;;;;;7.96;100.00;98676.41;5034749;28;20094;-55
2023/01/31 06:38:24;;;;;;;145.07;8.32;;;;;;;8.46;100.00;98675.53;5037550;28;20028;-56
2023/01/31 06:40:49;;;;;;;117.45;9.50;;;;;;;7.22;100.00;98675.81;5035793;28;20090;-54
2023/01/31 06:43:15;;;;;;;191.63;10.57;;;;;;;6.67;100.00;98673.72;5034958;28;20143;-54
2023/01/31 06:45:43;;;;;;;127.90;8.25;;;;;;;6.08;100.00;98676.66;5033540;28;20700;-54
2023/01/31 06:48:09;;;;;;;145.02;9.48;;;;;;;6.98;100.00;98677.91;5036648;28;20032;-53
2023/01/31 06:50:34;;;;;;;196.50;10.73;;;;;;;5.51;100.00;98686.28;5034647;28;20036;-57
2023/01/31 06:53:00;;;;;;;151.10;9.32;;;;;;;4.99;100.00;98688.19;5037534;28;20759;-56
2023/01/31 06:55:25;;;;;;;166.68;11.10;;;;;;;5.22;100.00;98683.75;5035610;28;20043;-54
2023/01/31 06:57:50;;;;;;;203.70;16.13;;;;;;;10.87;100.00;98675.69;5036571;28;20052;-55
2023/01/31 07:00:20;;;;;;;156.70;14.13;;;;;;;11.82;100.00;98686.53;5036204;28;20024;-56
2023/01/31 07:02:45;;;;;;;173.85;13.63;;;;;;;12.56;100.00;98685.81;5035607;28;20129;-55
2023/01/31 07:05:11;;;;;;;140.50;11.68;;;;;;;13.49;100.00;98676.94;5035757;28;20403;-56
2023/01/31 07:07:36;;;;;;;206.10;13.27;;;;;;;12.76;100.00;98685.78;5031752;28;20084;-57
2023/01/31 07:10:02;;;;;;;142.38;10.65;;;;;;;8.21;100.00;98688.06;5035121;28;20029;-56
2023/01/31 07:12:27;;;;;;;136.75;9.57;;;;;;;6.17;100.00;98690.63;5034779;28;20041;-54
2023/01/31 07:14:52;;;;;;;177.90;12.52;;;;;;;5.32;100.00;98688.34;5036106;28;20061;-55
2023/01/31 07:17:19;;;;;;;140.52;8.82;;;;;;;5.07;100.00;98695.34;5036329;28;20029;-55
2023/01/31 07:19:45;;;;;;;188.85;10.52;;;;;;;5.19;100.00;98691.38;5034798;28;20047;-53
2023/01/31 07:22:11;;;;;;;147.52;11.05;;;;;;;4.83;100.00;98692.91;5035507;28;20041;-53
2023/01/31 07:24:36;;;;;;;160.93;10.27;;;;;;;5.11;100.00;98690.28;5020847;28;20457;-54
2023/01/31 07:27:01;;;;;;;166.05;10.82;;;;;;;5.21;100.00;98693.16;5035711;28;20123;-55
2023/01/31 07:29:27;;;;;;;138.77;9.50;;;;;;;4.84;100.00;98696.34;5035766;28;20052;-55
2023/01/31 07:31:53;;;;;;;125.07;9.77;;;;;;;4.66;100.00;98694.94;5035726;28;20560;-54
2023/01/31 07:34:21;;;;;;;180.80;9.65;;;;;;;4.82;100.00;98686.88;5036454;28;20032;-55
2023/01/31 07:36:50;;;;;;;156.20;10.90;;;;;;;4.82;100.00;98679.13;5035262;28;20575;-55
2023/01/31 07:39:15;;;;;;;199.45;11.55;;;;;;;5.55;100.00;98675.22;5036229;28;20091;-53
2023/01/31 07:41:41;;;;;;;131.85;8.15;;;;;;;5.43;100.00;98685.19;5035822;28;20147;-53
2023/01/31 07:44:07;;;;;;;147.65;10.02;;;;;;;6.55;100.00;98688.13;5036794;28;20059;-55
2023/01/31 07:46:35;;;;;;;174.38;9.07;;;;;;;6.56;100.00;98679.53;5035672;28;20143;-55
2023/01/31 07:49:01;;;;;;;125.07;8.45;;;;;;;7.02;100.00;98682.28;5035584;28;20021;-52
2023/01/31 07:51:27;;;;;;;128.02;6.90;;;;;;;6.58;100.00;98688.22;5015180;28;20808;-53
2023/01/31 07:53:52;;;;;;;135.65;9.13;;;;;;;7.40;100.00;98696.03;5016750;28;20059;-54
2023/01/31 07:56:20;;;;;;;128.57;10.35;;;;;;;8.08;100.00;98702.53;5036079;28;20518;-54
2023/01/31 07:58:47;;;;;;;197.90;11.60;;;;;;;6.87;100.00;98706.09;5035543;28;20040;-54
2023/01/31 08:04:06;;;;;;;163.80;10.40;;;;;;;7.69;100.00;98714.75;5037400;28;20071;-54
2023/01/31 08:06:31;;;;;;;135.13;10.50;;;;;;;7.52;100.00;98713.53;5017521;28;20391;-52
2023/01/31 08:08:57;;;;;;;152.88;9.05;;;;;;;7.24;100.00;98708.63;5019809;28;20136;-52
2023/01/31 08:11:23;;;;;;;132.77;8.23;;;;;;;6.96;100.00;98720.97;5033841;28;20125;-54
2023/01/31 08:13:48;;;;;;;147.35;10.77;;;;;;;7.29;100.00;98721.69;5036010;28;20140;-52
2023/01/31 08:16:14;;;;;;;205.57;13.07;;;;;;;7.75;100.00;98718.28;5033034;28;20037;-53
2023/01/31 08:18:40;;;;;;;168.90;11.57;;;;;;;8.38;100.00;98720.34;5034905;28;20037;-54
2023/01/31 08:21:06;;;;;;;176.07;9.70;;;;;;;8.72;100.00;98726.97;5034588;28;20930;-53
2023/01/31 08:23:33;;;;;;;169.73;10.68;;;;;;;9.31;100.00;98707.94;5035301;28;20033;-55
2023/01/31 08:26:00;;;;;;;168.50;11.75;;;;;;;8.70;100.00;98720.91;5034708;28;20037;-54
2023/01/31 08:28:25;;;;;;;156.07;11.38;;;;;;;7.69;100.00;98730.28;5013067;28;20064;-54
2023/01/31 08:30:51;;;;;;;139.60;10.95;;;;;;;6.62;100.00;98736.56;5013954;28;20042;-53
2023/01/31 08:33:16;;;;;;;172.23;9.88;;;;;;;6.32;100.00;98747.00;5033835;28;20052;-53
2023/01/31 08:35:41;;;;;;;149.55;8.50;;;;;;;7.15;100.00;98745.53;5033948;28;20036;-53
2023/01/31 08:38:07;;;;;;;157.70;10.13;;;;;;;7.28;100.00;98745.81;5035852;28;20033;-53
2023/01/31 08:40:32;;;;;;;207.23;11.57;;;;;;;8.50;100.00;98755.97;5032789;28;20458;-53
2023/01/31 08:42:59;;;;;;;143.25;10.75;;;;;;;8.50;100.00;98753.38;5035202;28;20029;-53
2023/01/31 08:45:25;;;;;;;135.85;9.85;;;;;;;8.56;100.00;98756.09;5031655;28;20240;-53
2023/01/31 08:47:55;;;;;;;157.27;10.32;;;;;;;9.08;100.00;98752.56;5032152;28;20139;-56
2023/01/31 08:50:21;;;;;;;148.80;10.25;;;;;;;8.66;100.00;98736.38;5031659;28;20517;-53
2023/01/31 08:52:51;;;;;;;203.20;13.52;;;;;;;7.86;100.00;98747.88;5034909;28;20514;-54
2023/01/31 08:55:16;;;;;;;145.07;10.00;;;;;;;9.62;100.00;98736.88;5033868;28;20768;-54
2023/01/31 08:57:43;;;;;;;169.10;13.00;;;;;;;9.29;100.00;98738.16;5033565;28;20156;-55
2023/01/31 09:00:09;;;;;;;155.57;8.77;;;;;;;7.61;100.00;98746.50;5035054;28;20023;-53
2023/01/31 09:02:34;;;;;;;143.75;9.73;;;;;;;6.66;100.00;98744.38;5018193;28;20080;-53
2023/01/31 09:05:00;;;;;;;181.23;10.77;;;;;;;7.56;100.00;98736.06;5033972;28;20045;-53
2023/01/31 09:07:25;;;;;;;151.05;11.30;;;;;;;6.99;100.00;98743.44;5035986;28;20033;-54
2023/01/31 09:09:50;;;;;;;168.43;12.32;;;;;;;7.42;100.00;98740.94;5035730;28;20095;-54
2023/01/31 09:12:16;;;;;;;154.15;10.45;;;;;;;7.32;100.00;98742.47;5035247;28;20506;-52
2023/01/31 09:14:41;;;;;;;148.75;12.20;;;;;;;7.51;100.00;98740.25;5036304;28;20509;-56
2023/01/31 09:17:07;;;;;;;175.52;12.40;;;;;;;7.09;100.00;98736.78;5036018;28;20583;-53
2023/01/31 09:19:32;;;;;;;179.85;12.18;;;;;;;7.43;100.00;98730.59;5035511;28;20021;-55
2023/01/31 09:21:58;;;;;;;167.00;11.32;;;;;;;6.64;100.00;98746.91;5032677;28;20045;-54
2023/01/31 09:24:23;;;;;;;188.43;13.48;;;;;;;6.27;100.00;98741.69;5012373;28;20087;-54
2023/01/31 09:26:48;;;;;;;142.75;10.68;;;;;;;8.18;100.00;98749.34;5037918;28;20052;-54
2023/01/31 09:29:14;;;;;;;185.23;13.68;;;;;;;8.03;100.00;98749.94;5038525;28;20340;-54
2023/01/31 09:31:40;;;;;;;157.88;8.32;;;;;;;6.32;100.00;98745.28;5037437;28;20049;-54
2023/01/31 09:34:05;;;;;;;166.57;11.68;;;;;;;7.07;100.00;98747.09;5038024;28;20111;-56
2023/01/31 09:36:30;;;;;;;184.88;14.00;;;;;;;6.29;100.00;98741.72;5036341;28;20746;-53
2023/01/31 09:38:56;;;;;;;159.35;10.50;;;;;;;6.55;100.00;98736.34;5038536;28;20614;-53
2023/01/31 09:41:43;;;;;;;134.25;9.32;;;;;;;6.90;100.00;98737.22;5037376;28;20116;-53
2023/01/31 09:44:16;;;;;;;165.68;10.85;;;;;;;6.50;100.00;98744.88;5037559;28;20108;-53
2023/01/31 09:47:17;;;;;;;186.70;9.52;;;;;;;7.16;100.00;98742.13;5035966;28;20119;-55
2023/01/31 09:50:01;;;;;;;185.13;8.93;;;;;;;7.80;100.00;98746.03;5038329;28;20025;-56
2023/01/31 09:52:29;;;;;;;134.93;9.43;;;;;;;7.19;100.00;98745.63;5037063;28;20041;-56
2023/01/31 09:54:54;;;;;;;159.18;9.88;;;;;;;8.82;100.00;98737.47;5020549;28;20032;-54
2023/01/31 09:57:41;;;;;;;144.32;10.48;;;;;;;9.32;100.00;98736.47;5037378;28;20079;-55
2023/01/31 10:00:46;;;;;;;165.10;9.73;;;;;;;8.06;100.00;98737.03;5036014;28;20439;-55
2023/01/31 10:03:42;;;;;;;163.40;11.18;;;;;;;7.81;100.00;98733.97;5037384;28;20211;-55
2023/01/31 10:06:34;;;;;;;164.07;8.77;;;;;;;9.15;100.00;98735.38;5035543;28;20495;-55
2023/01/31 10:09:09;;;;;;;;;;;;;;;9.90;100.00;98721.59;5038755;28;20079;-55
2023/01/31 10:11:52;;;;;;;163.25;10.55;;;;;;;8.47;100.00;98721.34;5036512;28;20313;-53
2023/01/31 10:14:28;;;;;;;161.85;11.35;;;;;;;8.80;100.00;98719.28;5038329;28;20027;-54
2023/01/31 10:17:16;;;;;;;141.98;11.50;;;;;;;9.03;100.00;98712.72;5036233;28;20033;-54
2023/01/31 10:19:53;;;;;;;202.77;8.55;;;;;;;7.59;100.00;98707.66;5036620;28;20028;-54
2023/01/31 10:22:38;;;;;;;175.38;10.90;;;;;;;8.89;100.00;98700.41;5036213;28;20288;-53
2023/01/31 10:25:16;;;;;;;131.63;7.68;;;;;;;8.93;100.00;98698.72;5038422;28;20021;-55
2023/01/31 10:27:47;;;;;;;169.20;10.30;;;;;;;9.51;100.00;98690.00;5036671;28;20144;-54
2023/01/31 10:30:23;;;;;;;123.18;8.65;;;;;;;9.29;100.00;98684.53;5036304;28;20041;-54
2023/01/31 10:33:26;;;;;;;160.05;10.77;;;;;;;8.68;100.00;98680.19;5035832;28;20032;-54
2023/01/31 10:35:55;;;;;;;151.77;8.70;;;;;;;8.40;100.00;98688.41;5036808;28;20596;-53
2023/01/31 10:38:30;;;;;;;139.30;8.20;;;;;;;9.67;100.00;98669.38;5036177;28;20033;-54
2023/01/31 10:41:05;;;;;;;176.57;12.15;;;;;;;10.13;100.00;98666.38;5037377;28;20075;-54
2023/01/31 10:43:42;;;;;;;139.82;10.07;;;;;;;9.24;100.00;98662.81;5037077;28;20028;-53
2023/01/31 10:46:10;;;;;;;174.45;12.68;;;;;;;9.19;100.00;98659.28;5035797;28;20515;-54
2023/01/31 10:48:36;;;;;;;115.97;8.93;;;;;;;10.32;100.00;98644.03;5035379;28;20700;-54
2023/01/31 10:51:17;;;;;;;155.02;9.05;;;;;;;10.14;100.00;98647.34;5036250;28;20037;-54
2023/01/31 10:54:03;;;;;;;100.97;6.72;;;;;;;9.87;100.00;98646.22;5035578;28;20151;-54
2023/01/31 10:56:34;;;;;;;138.15;8.18;;;;;;;9.18;100.00;98642.88;5037583;28;20447;-54
2023/01/31 10:59:04;;;;;;;187.73;10.23;;;;;;;10.64;100.00;98652.97;5036522;28;20061;-55
2023/01/31 11:01:29;;;;;;;149.65;9.98;;;;;;;11.45;100.00;98640.38;5037083;28;20033;-54
2023/01/31 11:03:56;;;;;;;124.72;7.85;;;;;;;10.58;100.00;98645.97;5037565;28;20570;-56
2023/01/31 11:06:23;;;;;;;154.82;8.63;;;;;;;10.78;100.00;98633.13;5036699;28;20041;-54
2023/01/31 11:08:57;;;;;;;131.93;10.93;;;;;;;10.72;100.00;98621.81;5038719;28;20897;-54
2023/01/31 11:11:25;;;;;;;146.15;9.55;;;;;;;11.57;100.00;98616.97;5035746;28;20041;-55
2023/01/31 11:14:17;;;;;;;175.43;12.07;;;;;;;12.08;100.00;98628.38;5036038;28;20075;-55
2023/01/31 11:16:43;;;;;;;176.90;11.25;;;;;;;12.22;100.00;98631.00;5036684;28;20099;-54
2023/01/31 11:19:21;;;;;;;149.52;9.95;;;;;;;12.40;100.00;98624.06;5037447;28;20021;-55
2023/01/31 11:21:50;;;;;;;159.90;10.00;;;;;;;11.87;100.00;98622.25;5036273;28;20657;-54
2023/01/31 11:24:20;;;;;;;165.02;10.85;;;;;;;12.16;100.00;98615.34;5036782;28;20029;-54
2023/01/31 11:27:09;;;;;;;149.07;9.93;;;;;;;10.65;100.00;98613.09;5032993;28;20059;-54
2023/01/31 11:29:47;;;;;;;202.00;13.15;;;;;;;10.72;100.00;98596.66;5035430;28;20047;-54